Time;durP1;ratioP1;P1;durP2;ratioP2;P2;SDS_P1;SDS_P2;PMS_P1;PMS_P2;Temp;Humidity;BMP_temperature;BMP_pressure;BME280_temperature;BME280_humidity;BME280_pressure;Samples;Min_cycle;Max_cycle;Signal;HPM_P1;HPM_P2
2022/07/22 00:02:10;;;;;;;;;;;19.20;99.90;;;;;;5051855;28;20372;-81
2022/07/22 00:04:36;;;;;;;;;;;19.20;99.90;;;;;;5053038;28;19975;-81
2022/07/22 00:07:02;;;;;;;;;;;19.20;99.90;;;;;;5052775;28;20007;-81
2022/07/22 00:09:27;;;;;;;;;;;19.20;99.90;;;;;;5052794;28;19908;-81
2022/07/22 00:11:53;;;;;;;;;;;19.20;99.90;;;;;;5073598;22;20526;-81
2022/07/22 00:14:19;;;;;;;;;;;19.10;99.90;;;;;;5035516;28;20291;-82
2022/07/22 00:16:44;;;;;;;;;;;19.00;99.90;;;;;;5042978;28;19909;-82
2022/07/22 00:19:10;;;;;;;;;;;19.00;99.90;;;;;;5053555;28;19904;-82
2022/07/22 00:21:35;;;;;;;;;;;19.00;99.90;;;;;;5051930;28;20062;-82
2022/07/22 00:24:01;;;;;;;;;;;18.90;99.90;;;;;;5052103;28;20065;-83
2022/07/22 00:26:26;;;;;;;;;;;19.00;99.90;;;;;;5051132;28;19962;-82
2022/07/22 00:28:52;;;;;;;;;;;19.00;99.90;;;;;;5051839;28;19958;-82
2022/07/22 00:31:17;;;;;;;;;;;19.00;99.90;;;;;;5051519;28;20314;-82
2022/07/22 00:33:43;;;;;;;;;;;19.00;99.90;;;;;;5051759;28;19908;-82
2022/07/22 00:36:08;;;;;;;;;;;19.00;99.90;;;;;;5052915;28;19959;-83
2022/07/22 00:38:34;;;;;;;;;;;19.00;99.90;;;;;;5052233;28;19954;-82
2022/07/22 00:40:59;;;;;;;;;;;19.10;99.90;;;;;;5052870;28;19913;-82
2022/07/22 00:43:25;;;;;;;;;;;19.10;99.90;;;;;;5052937;28;19911;-81
2022/07/22 00:45:51;;;;;;;;;;;19.10;99.90;;;;;;5051352;28;20318;-82
2022/07/22 00:48:16;;;;;;;;;;;19.10;99.90;;;;;;5052675;28;19912;-81
2022/07/22 00:50:42;;;;;;;;;;;19.20;99.90;;;;;;5051441;28;19950;-81
2022/07/22 00:53:07;;;;;;;;;;;19.10;99.90;;;;;;5052553;28;20376;-83
2022/07/22 00:55:34;;;;;;;;;;;19.10;99.90;;;;;;5052335;28;19913;-82
2022/07/22 00:57:59;;;;;;;;;;;19.10;99.90;;;;;;5052242;28;19904;-81
2022/07/22 01:00:25;;;;;;;;;;;19.10;99.90;;;;;;5051143;28;19999;-82
2022/07/22 01:02:50;;;;;;;;;;;19.20;99.90;;;;;;5050284;28;20003;-83
2022/07/22 01:05:17;;;;;;;;;;;19.20;99.90;;;;;;5052227;28;19950;-82
2022/07/22 01:07:43;;;;;;;;;;;19.20;99.90;;;;;;5052292;28;19909;-82
2022/07/22 01:10:09;;;;;;;;;;;19.20;99.90;;;;;;5052181;28;20394;-81
2022/07/22 01:12:34;;;;;;;;;;;19.20;99.90;;;;;;5052504;28;20442;-81
2022/07/22 01:15:00;;;;;;;;;;;19.20;99.90;;;;;;5050901;28;20280;-81
2022/07/22 01:17:25;;;;;;;;;;;19.20;99.90;;;;;;5050965;28;19958;-82
2022/07/22 01:19:51;;;;;;;;;;;19.20;99.90;;;;;;5052250;28;19905;-81
2022/07/22 01:22:17;;;;;;;;;;;19.20;99.90;;;;;;5050821;28;19950;-81
2022/07/22 01:24:42;;;;;;;;;;;19.20;99.90;;;;;;5051007;28;19909;-81
2022/07/22 01:27:07;;;;;;;;;;;19.20;99.90;;;;;;5051935;28;19947;-82
2022/07/22 01:29:33;;;;;;;;;;;19.20;99.90;;;;;;5055034;28;19913;-81
2022/07/22 01:31:59;;;;;;;;;;;19.20;99.90;;;;;;5054849;28;19904;-81
2022/07/22 01:34:25;;;;;;;;;;;19.20;99.90;;;;;;5054911;28;20003;-82
2022/07/22 01:36:50;;;;;;;;;;;19.20;99.90;;;;;;5054237;28;19912;-82
2022/07/22 01:39:16;;;;;;;;;;;19.20;99.90;;;;;;5055757;28;19905;-81
2022/07/22 01:41:42;;;;;;;;;;;19.20;99.90;;;;;;5055680;28;20336;-81
2022/07/22 01:44:07;;;;;;;;;;;19.20;99.90;;;;;;5054842;28;19999;-81
2022/07/22 01:46:33;;;;;;;;;;;19.20;99.90;;;;;;5055376;28;19909;-81
2022/07/22 01:48:58;;;;;;;;;;;19.20;99.90;;;;;;5054329;28;19947;-81
2022/07/22 01:51:24;;;;;;;;;;;19.20;99.90;;;;;;5055698;28;19905;-81
2022/07/22 01:53:49;;;;;;;;;;;19.20;99.90;;;;;;5055363;28;19912;-81
2022/07/22 01:56:15;;;;;;;;;;;19.20;99.90;;;;;;5053955;28;19905;-81
2022/07/22 01:58:40;;;;;;;;;;;19.20;99.90;;;;;;5054185;28;19904;-81
2022/07/22 02:01:06;;;;;;;;;;;19.30;99.90;;;;;;5053993;28;19917;-81
2022/07/22 02:03:32;;;;;;;;;;;19.20;99.90;;;;;;5054004;28;19904;-81
2022/07/22 02:05:58;;;;;;;;;;;19.20;99.90;;;;;;5053859;28;19992;-81
2022/07/22 02:08:23;;;;;;;;;;;19.30;99.90;;;;;;5055084;28;19951;-81
2022/07/22 02:10:49;;;;;;;;;;;19.30;99.90;;;;;;5053877;28;19909;-81
2022/07/22 02:13:14;;;;;;;;;;;19.30;99.90;;;;;;5055249;28;19927;-81
2022/07/22 02:15:40;;;;;;;;;;;19.20;99.90;;;;;;5054950;28;19992;-81
2022/07/22 02:18:09;;;;;;;;;;;19.20;99.90;;;;;;5053648;28;20375;-81
2022/07/22 02:20:35;;;;;;;;;;;19.20;99.90;;;;;;5053904;28;19908;-81
2022/07/22 02:23:00;;;;;;;;;;;19.10;99.90;;;;;;5053665;28;20423;-81
2022/07/22 02:25:26;;;;;;;;;;;19.20;99.90;;;;;;5053653;28;19909;-81
2022/07/22 02:27:51;;;;;;;;;;;19.20;99.90;;;;;;5054624;28;19911;-81
2022/07/22 02:30:17;;;;;;;;;;;19.10;99.90;;;;;;5053386;28;19904;-81
2022/07/22 02:32:42;;;;;;;;;;;19.10;99.90;;;;;;5053799;28;20023;-81
2022/07/22 02:35:08;;;;;;;;;;;19.10;99.90;;;;;;5054697;28;19912;-81
2022/07/22 02:37:33;;;;;;;;;;;19.20;99.90;;;;;;5053070;28;19912;-81
2022/07/22 02:39:59;;;;;;;;;;;19.10;99.90;;;;;;5054261;28;20346;-81
2022/07/22 02:42:24;;;;;;;;;;;19.10;99.90;;;;;;5053391;28;19968;-81
2022/07/22 02:44:50;;;;;;;;;;;19.10;99.90;;;;;;5054653;28;19909;-81
2022/07/22 02:47:15;;;;;;;;;;;19.10;99.90;;;;;;5054272;28;20360;-81
2022/07/22 02:49:41;;;;;;;;;;;19.10;99.90;;;;;;5053353;28;19909;-81
2022/07/22 02:52:06;;;;;;;;;;;19.10;99.90;;;;;;5052986;28;19905;-81
2022/07/22 02:54:32;;;;;;;;;;;19.10;99.90;;;;;;5054557;28;19912;-81
2022/07/22 02:56:57;;;;;;;;;;;19.10;99.90;;;;;;5053984;28;20291;-81
2022/07/22 02:59:23;;;;;;;;;;;19.10;99.90;;;;;;5053126;28;19908;-81
2022/07/22 03:01:48;;;;;;;;;;;19.10;99.90;;;;;;5054272;28;20065;-81
2022/07/22 03:04:14;;;;;;;;;;;19.10;99.90;;;;;;5052992;28;19911;-81
2022/07/22 03:06:39;;;;;;;;;;;19.10;99.90;;;;;;5052532;28;19915;-81
2022/07/22 03:09:05;;;;;;;;;;;19.10;99.90;;;;;;5054223;28;19954;-80
2022/07/22 03:11:30;;;;;;;;;;;19.10;99.90;;;;;;5054266;28;19913;-80
2022/07/22 03:13:56;;;;;;;;;;;19.00;99.90;;;;;;5052897;28;19905;-81
2022/07/22 03:16:21;;;;;;;;;;;19.00;99.90;;;;;;5053778;28;19908;-82
2022/07/22 03:18:46;;;;;;;;;;;18.90;99.90;;;;;;5054137;28;19948;-80
2022/07/22 03:21:12;;;;;;;;;;;19.00;99.90;;;;;;5053079;28;20377;-80
2022/07/22 03:23:37;;;;;;;;;;;18.90;99.90;;;;;;5060423;28;19911;-83
2022/07/22 03:26:03;;;;;;;;;;;18.90;99.90;;;;;;5061754;28;20054;-83
2022/07/22 03:28:28;;;;;;;;;;;19.00;99.90;;;;;;5061905;28;19905;-83
2022/07/22 03:30:54;;;;;;;;;;;18.90;99.90;;;;;;5060618;28;19912;-82
2022/07/22 03:33:19;;;;;;;;;;;18.90;99.90;;;;;;5061624;28;19915;-83
2022/07/22 03:35:45;;;;;;;;;;;18.90;99.90;;;;;;5056711;28;19977;-83
2022/07/22 03:38:10;;;;;;;;;;;18.90;99.90;;;;;;5061252;28;19905;-82
2022/07/22 03:40:36;;;;;;;;;;;18.90;99.90;;;;;;5052190;28;19916;-83
2022/07/22 03:43:02;;;;;;;;;;;18.80;99.90;;;;;;5059966;28;19927;-83
2022/07/22 03:45:27;;;;;;;;;;;18.80;99.90;;;;;;5060755;28;19904;-81
2022/07/22 03:47:54;;;;;;;;;;;18.80;99.90;;;;;;5058439;28;20265;-82
2022/07/22 03:50:20;;;;;;;;;;;18.80;99.90;;;;;;5059855;28;19905;-83
2022/07/22 03:52:45;;;;;;;;;;;18.70;99.90;;;;;;5050052;28;20382;-83
2022/07/22 03:55:11;;;;;;;;;;;18.80;99.90;;;;;;5060525;28;19999;-82
2022/07/22 03:57:36;;;;;;;;;;;18.70;99.90;;;;;;5058340;28;19905;-83
2022/07/22 04:00:03;;;;;;;;;;;18.80;99.90;;;;;;5059961;28;19959;-82
2022/07/22 04:02:28;;;;;;;;;;;18.80;99.90;;;;;;5059620;28;19909;-83
2022/07/22 04:04:54;;;;;;;;;;;18.70;99.90;;;;;;5059739;28;19940;-82
2022/07/22 04:07:19;;;;;;;;;;;18.70;99.90;;;;;;5058415;28;20378;-81
2022/07/22 04:09:45;;;;;;;;;;;18.80;99.90;;;;;;5058407;28;19909;-83
2022/07/22 04:12:10;;;;;;;;;;;18.80;99.90;;;;;;5059093;28;19912;-82
2022/07/22 04:14:35;;;;;;;;;;;18.90;99.90;;;;;;5059035;28;19905;-82
2022/07/22 04:17:01;;;;;;;;;;;18.80;99.90;;;;;;5057472;28;19905;-83
2022/07/22 04:19:26;;;;;;;;;;;18.90;99.90;;;;;;5057237;28;19911;-82
2022/07/22 04:21:52;;;;;;;;;;;18.90;99.90;;;;;;5053012;28;19936;-81
2022/07/22 04:24:17;;;;;;;;;;;18.90;99.90;;;;;;5051710;28;19911;-80
2022/07/22 04:26:43;;;;;;;;;;;18.90;99.90;;;;;;5051269;28;20435;-81
2022/07/22 04:29:08;;;;;;;;;;;19.00;99.90;;;;;;5051346;28;19905;-80
2022/07/22 04:31:34;;;;;;;;;;;19.00;99.90;;;;;;5052880;28;20284;-81
2022/07/22 04:33:59;;;;;;;;;;;19.00;99.90;;;;;;5051505;28;19940;-81
2022/07/22 04:36:25;;;;;;;;;;;19.00;99.90;;;;;;5052217;28;19916;-80
2022/07/22 04:38:50;;;;;;;;;;;19.10;99.90;;;;;;5052603;28;19908;-80
2022/07/22 04:41:16;;;;;;;;;;;19.10;99.90;;;;;;5052275;28;20351;-81
2022/07/22 04:43:41;;;;;;;;;;;19.10;99.90;;;;;;5052878;28;19905;-81
2022/07/22 04:46:07;;;;;;;;;;;19.10;99.90;;;;;;5051080;28;19951;-80
2022/07/22 04:48:33;;;;;;;;;;;19.10;99.90;;;;;;5051290;28;20438;-81
2022/07/22 04:51:00;;;;;;;;;;;19.10;99.90;;;;;;5052106;28;20394;-81
2022/07/22 04:53:26;;;;;;;;;;;19.10;99.90;;;;;;5052447;28;20011;-80
2022/07/22 04:55:51;;;;;;;;;;;19.10;99.90;;;;;;5052073;28;20368;-81
2022/07/22 04:58:17;;;;;;;;;;;19.20;99.90;;;;;;5052337;28;19922;-80
2022/07/22 05:00:42;;;;;;;;;;;19.20;99.90;;;;;;5052050;28;19913;-81
2022/07/22 05:03:08;;;;;;;;;;;19.20;99.90;;;;;;5052523;28;20003;-81
2022/07/22 05:05:34;;;;;;;;;;;19.30;99.90;;;;;;5052006;28;19912;-82
2022/07/22 05:07:59;;;;;;;;;;;19.30;99.90;;;;;;5052004;28;20265;-80
2022/07/22 05:10:25;;;;;;;;;;;19.30;99.90;;;;;;5050759;28;19909;-80
2022/07/22 05:12:50;;;;;;;;;;;19.30;99.90;;;;;;5054161;28;19905;-80
2022/07/22 05:15:16;;;;;;;;;;;19.30;99.90;;;;;;5055514;28;19904;-81
2022/07/22 05:17:41;;;;;;;;;;;19.30;99.90;;;;;;5056495;28;20331;-81
2022/07/22 05:20:07;;;;;;;;;;;19.40;99.90;;;;;;5057398;28;19909;-80
2022/07/22 05:22:32;;;;;;;;;;;19.30;99.90;;;;;;5057175;28;19908;-80
2022/07/22 05:24:58;;;;;;;;;;;19.40;99.90;;;;;;5058050;28;19908;-80
2022/07/22 05:27:23;;;;;;;;;;;19.40;99.90;;;;;;5056162;28;20379;-80
2022/07/22 05:29:49;;;;;;;;;;;19.40;99.90;;;;;;5054292;28;19947;-80
2022/07/22 05:32:14;;;;;;;;;;;19.40;99.90;;;;;;5055982;28;19904;-81
2022/07/22 05:34:40;;;;;;;;;;;19.50;99.90;;;;;;5056080;28;19905;-81
2022/07/22 05:37:05;;;;;;;;;;;19.50;99.90;;;;;;5055272;28;20320;-80
2022/07/22 05:39:31;;;;;;;;;;;19.50;99.90;;;;;;5054139;28;19966;-80
2022/07/22 05:41:56;;;;;;;;;;;19.50;99.90;;;;;;5056196;28;19944;-80
2022/07/22 05:44:22;;;;;;;;;;;19.50;99.90;;;;;;5056685;28;19908;-80
2022/07/22 05:46:47;;;;;;;;;;;19.50;99.90;;;;;;5051239;28;20282;-81
2022/07/22 05:49:13;;;;;;;;;;;19.50;99.90;;;;;;5054973;28;19962;-80
2022/07/22 05:51:38;;;;;;;;;;;19.60;99.90;;;;;;5054904;28;20368;-81
2022/07/22 05:54:04;;;;;;;;;;;19.60;99.90;;;;;;5055465;28;19912;-80
2022/07/22 05:56:29;;;;;;;;;;;19.50;99.90;;;;;;5054727;28;20360;-80
2022/07/22 05:58:56;;;;;;;;;;;19.50;99.90;;;;;;5052262;28;19909;-81
2022/07/22 06:01:21;;;;;;;;;;;19.60;99.90;;;;;;5051014;28;19908;-82
2022/07/22 06:03:47;;;;;;;;;;;19.50;99.90;;;;;;5051049;28;19954;-82
2022/07/22 06:06:13;;;;;;;;;;;19.60;99.90;;;;;;5052348;28;19912;-81
2022/07/22 06:08:38;;;;;;;;;;;19.50;99.90;;;;;;5053577;28;19998;-81
2022/07/22 06:11:04;;;;;;;;;;;19.60;99.90;;;;;;5050915;28;19913;-80
2022/07/22 06:13:29;;;;;;;;;;;19.50;99.90;;;;;;5053704;28;19904;-80
2022/07/22 06:15:55;;;;;;;;;;;19.50;99.90;;;;;;5057123;28;19915;-80
2022/07/22 06:18:20;;;;;;;;;;;19.40;99.90;;;;;;5056814;28;19912;-80
2022/07/22 06:20:46;;;;;;;;;;;19.40;99.90;;;;;;5055056;28;20007;-80
2022/07/22 06:23:11;;;;;;;;;;;19.50;99.90;;;;;;5056723;28;19905;-80
2022/07/22 06:25:37;;;;;;;;;;;19.50;99.90;;;;;;5056148;28;19940;-80
2022/07/22 06:28:02;;;;;;;;;;;19.50;99.90;;;;;;5056275;28;20214;-81
2022/07/22 06:30:28;;;;;;;;;;;19.60;99.90;;;;;;5056248;28;20291;-81
2022/07/22 06:32:53;;;;;;;;;;;19.60;99.90;;;;;;5056106;28;19905;-80
2022/07/22 06:35:19;;;;;;;;;;;19.70;99.90;;;;;;5056800;28;20322;-80
2022/07/22 06:37:44;;;;;;;;;;;19.70;99.90;;;;;;5055829;28;20220;-80
2022/07/22 06:40:10;;;;;;;;;;;19.80;99.90;;;;;;5056328;28;19909;-81
2022/07/22 06:42:36;;;;;;;;;;;19.80;99.90;;;;;;5054600;28;19905;-80
2022/07/22 06:45:02;;;;;;;;;;;19.90;99.90;;;;;;5056119;28;19905;-80
2022/07/22 06:47:28;;;;;;;;;;;19.90;99.90;;;;;;5054330;28;19904;-80
2022/07/22 06:49:53;;;;;;;;;;;19.90;99.90;;;;;;5055836;28;19934;-80
2022/07/22 06:52:19;;;;;;;;;;;19.90;99.90;;;;;;5055629;28;20000;-80
2022/07/22 06:54:44;;;;;;;;;;;20.00;99.90;;;;;;5054089;28;20283;-80
2022/07/22 06:57:11;;;;;;;;;;;20.00;99.90;;;;;;5055000;28;19940;-80
2022/07/22 06:59:36;;;;;;;;;;;20.10;99.90;;;;;;5055021;28;19912;-80
2022/07/22 07:02:02;;;;;;;;;;;20.00;99.90;;;;;;5055163;28;19912;-80
2022/07/22 07:04:27;;;;;;;;;;;20.10;99.90;;;;;;5053517;28;19911;-80
2022/07/22 07:06:53;;;;;;;;;;;20.10;99.90;;;;;;5054813;28;19916;-80
2022/07/22 07:09:18;;;;;;;;;;;20.20;99.90;;;;;;5053032;28;19905;-80
2022/07/22 07:11:44;;;;;;;;;;;20.20;99.90;;;;;;5054320;28;20345;-80
2022/07/22 07:14:09;;;;;;;;;;;20.20;99.90;;;;;;5054321;28;20307;-81
2022/07/22 07:16:37;;;;;;;;;;;20.30;99.90;;;;;;5054040;28;19905;-80
2022/07/22 07:19:03;;;;;;;;;;;20.40;99.90;;;;;;5054663;28;19956;-80
2022/07/22 07:21:29;;;;;;;;;;;20.50;99.90;;;;;;5054356;28;19950;-80
2022/07/22 07:23:55;;;;;;;;;;;20.50;99.90;;;;;;5053067;28;20352;-80
2022/07/22 07:26:20;;;;;;;;;;;20.60;99.90;;;;;;5052784;28;19988;-80
2022/07/22 07:28:46;;;;;;;;;;;20.70;99.90;;;;;;5054867;28;19904;-80
2022/07/22 07:31:11;;;;;;;;;;;20.80;99.90;;;;;;5054171;28;19904;-80
2022/07/22 07:33:37;;;;;;;;;;;20.80;99.90;;;;;;5052869;28;19905;-80
2022/07/22 07:36:02;;;;;;;;;;;20.80;99.90;;;;;;5052675;28;19916;-80
2022/07/22 07:38:28;;;;;;;;;;;20.90;99.90;;;;;;5052715;28;20010;-80
2022/07/22 07:40:53;;;;;;;;;;;21.00;99.90;;;;;;5053857;28;19908;-80
2022/07/22 07:43:20;;;;;;;;;;;21.20;99.90;;;;;;5052499;28;19904;-80
2022/07/22 07:45:45;;;;;;;;;;;21.20;99.90;;;;;;5052386;28;20371;-80
2022/07/22 07:48:11;;;;;;;;;;;21.30;99.90;;;;;;5052734;28;19908;-80
2022/07/22 07:50:36;;;;;;;;;;;21.30;99.90;;;;;;5053875;28;19958;-80
2022/07/22 07:53:02;;;;;;;;;;;21.30;99.90;;;;;;5053732;28;19909;-80
2022/07/22 07:55:27;;;;;;;;;;;21.40;99.90;;;;;;5053826;28;20363;-80
2022/07/22 07:57:53;;;;;;;;;;;21.50;99.90;;;;;;5053718;28;20387;-80
2022/07/22 08:00:20;;;;;;;;;;;21.60;99.90;;;;;;5053524;28;20363;-81
2022/07/22 08:02:46;;;;;;;;;;;21.70;99.90;;;;;;5053584;28;19911;-81
2022/07/22 08:05:11;;;;;;;;;;;21.80;99.90;;;;;;5052674;28;19999;-81
2022/07/22 08:07:37;;;;;;;;;;;21.80;99.90;;;;;;5053484;28;20007;-81
2022/07/22 08:10:03;;;;;;;;;;;22.00;99.90;;;;;;5053414;28;19909;-80
2022/07/22 08:12:29;;;;;;;;;;;22.00;99.90;;;;;;5053271;28;19969;-82
2022/07/22 08:14:54;;;;;;;;;;;22.20;99.90;;;;;;5051496;28;19905;-81
2022/07/22 08:17:20;;;;;;;;;;;22.30;99.90;;;;;;5052547;28;19908;-82
2022/07/22 08:19:45;;;;;;;;;;;22.40;99.90;;;;;;5051580;28;20276;-81
2022/07/22 08:22:11;;;;;;;;;;;22.50;99.90;;;;;;5051547;28;19908;-82
2022/07/22 08:24:36;;;;;;;;;;;22.60;99.90;;;;;;5051943;28;19905;-80
2022/07/22 08:27:02;;;;;;;;;;;22.60;99.90;;;;;;5051476;28;19973;-82
2022/07/22 08:29:27;;;;;;;;;;;22.70;99.90;;;;;;5052744;28;19999;-82
2022/07/22 08:31:53;;;;;;;;;;;22.70;99.90;;;;;;5052764;28;19904;-81
2022/07/22 08:34:18;;;;;;;;;;;22.70;99.90;;;;;;5053007;28;19905;-81
2022/07/22 08:36:44;;;;;;;;;;;22.90;99.90;;;;;;5050424;28;19904;-82
2022/07/22 08:39:10;;;;;;;;;;;23.10;99.90;;;;;;5051791;28;20295;-80
2022/07/22 08:41:36;;;;;;;;;;;23.10;99.90;;;;;;5051654;28;19912;-80
2022/07/22 08:44:03;;;;;;;;;;;23.20;99.90;;;;;;5052903;28;19954;-80
2022/07/22 08:46:29;;;;;;;;;;;23.30;99.90;;;;;;5051114;28;19959;-80
2022/07/22 08:48:55;;;;;;;;;;;23.30;99.90;;;;;;5052941;28;19940;-80
2022/07/22 08:51:20;;;;;;;;;;;23.60;99.90;;;;;;5053156;28;19909;-80
2022/07/22 08:53:46;;;;;;;;;;;23.90;99.90;;;;;;5056276;28;19911;-83
2022/07/22 08:56:12;;;;;;;;;;;24.00;99.90;;;;;;5054065;28;19904;-83
2022/07/22 08:58:37;;;;;;;;;;;24.20;99.90;;;;;;5055261;28;19908;-83
2022/07/22 09:01:07;;;;;;;;;;;24.40;99.90;;;;;;5053667;28;19908;-83
2022/07/22 09:03:33;;;;;;;;;;;24.60;99.90;;;;;;5056285;28;19956;-83
2022/07/22 09:05:58;;;;;;;;;;;24.70;99.90;;;;;;5057492;28;20297;-83
2022/07/22 09:08:24;;;;;;;;;;;24.80;99.90;;;;;;5054706;28;19913;-84
2022/07/22 09:10:50;;;;;;;;;;;24.90;99.90;;;;;;5043165;28;20355;-85
2022/07/22 09:13:16;;;;;;;;;;;25.50;99.90;;;;;;5061006;28;19942;-84
2022/07/22 09:15:47;;;;;;;;;;;25.50;99.90;;;;;;5063482;28;19909;-84
2022/07/22 09:18:12;;;;;;;;;;;25.40;99.90;;;;;;5064701;28;19909;-83
2022/07/22 09:20:38;;;;;;;;;;;25.00;99.90;;;;;;5061721;28;19912;-84
2022/07/22 09:23:24;;;;;;;;;;;24.90;99.90;;;;;;5056519;28;20007;-84
2022/07/22 09:25:49;;;;;;;;;;;24.50;99.90;;;;;;5056515;28;19905;-85
2022/07/22 09:28:20;;;;;;;;;;;24.40;99.90;;;;;;5056475;28;19909;-84
2022/07/22 09:30:48;;;;;;;;;;;24.50;99.90;;;;;;5057999;28;19916;-85
2022/07/22 09:33:13;;;;;;;;;;;24.50;99.90;;;;;;5058246;28;19912;-83
2022/07/22 09:35:42;;;;;;;;;;;24.40;99.90;;;;;;5056427;28;19908;-84
2022/07/22 09:38:09;;;;;;;;;;;24.40;99.90;;;;;;5056241;28;20363;-83
2022/07/22 09:40:36;;;;;;;;;;;24.40;99.90;;;;;;5053775;28;19912;-84
2022/07/22 09:43:03;;;;;;;;;;;24.50;99.90;;;;;;5054952;28;19959;-83
2022/07/22 09:45:30;;;;;;;;;;;24.40;99.90;;;;;;5052767;28;19948;-83
2022/07/22 09:47:57;;;;;;;;;;;24.30;99.90;;;;;;5050458;28;19905;-83
2022/07/22 09:50:25;;;;;;;;;;;24.40;99.90;;;;;;5055490;28;19915;-83
2022/07/22 09:52:51;;;;;;;;;;;24.40;99.90;;;;;;5038787;28;19904;-83
2022/07/22 09:55:18;;;;;;;;;;;24.30;99.90;;;;;;5038143;28;20471;-83
2022/07/22 09:57:44;;;;;;;;;;;24.20;99.90;;;;;;5038090;28;19908;-83
2022/07/22 10:00:10;;;;;;;;;;;24.40;99.90;;;;;;5038170;28;20058;-83
2022/07/22 10:02:39;;;;;;;;;;;24.40;99.90;;;;;;5037539;28;19905;-83
2022/07/22 10:05:05;;;;;;;;;;;24.60;99.90;;;;;;5055669;28;19996;-82
2022/07/22 10:07:31;;;;;;;;;;;24.50;99.90;;;;;;5037936;28;19989;-82
2022/07/22 10:09:57;;;;;;;;;;;24.70;99.90;;;;;;5055352;28;20058;-83
2022/07/22 10:12:22;;;;;;;;;;;24.80;99.90;;;;;;5034231;28;19917;-83
2022/07/22 10:14:48;;;;;;;;;;;25.00;99.90;;;;;;5049220;28;19955;-83
2022/07/22 10:17:14;;;;;;;;;;;25.00;99.90;;;;;;5045218;28;20379;-83
2022/07/22 10:19:40;;;;;;;;;;;25.10;99.90;;;;;;5054579;28;19958;-84
2022/07/22 10:22:25;;;;;;;;;;;24.90;99.90;;;;;;5053977;28;20315;-84
2022/07/22 10:25:00;;;;;;;;;;;24.90;99.90;;;;;;5053890;28;19912;-84
2022/07/22 10:27:44;;;;;;;;;;;24.90;99.90;;;;;;5053492;28;19931;-81
2022/07/22 10:30:10;;;;;;;;;;;25.00;99.90;;;;;;5055021;28;20397;-82
2022/07/22 10:32:36;;;;;;;;;;;25.00;99.90;;;;;;5056706;28;19987;-84
2022/07/22 10:35:03;;;;;;;;;;;24.80;99.90;;;;;;5059147;28;20526;-83
2022/07/22 10:37:34;;;;;;;;;;;24.90;99.90;;;;;;5055727;28;19955;-81
2022/07/22 10:40:12;;;;;;;;;;;24.90;99.90;;;;;;5057492;28;19904;-83
2022/07/22 10:42:56;;;;;;;;;;;25.10;99.90;;;;;;5056988;28;20376;-83
2022/07/22 10:45:46;;;;;;;;;;;24.80;99.90;;;;;;5057427;28;19915;-82
2022/07/22 10:48:13;;;;;;;;;;;25.00;99.90;;;;;;5051915;28;19904;-81
2022/07/22 10:50:42;;;;;;;;;;;25.10;99.90;;;;;;5056657;28;19905;-80
2022/07/22 10:53:09;;;;;;;;;;;25.10;99.90;;;;;;5057220;28;19905;-82
2022/07/22 10:55:36;;;;;;;;;;;25.30;99.90;;;;;;5055352;28;19912;-83
2022/07/22 10:58:20;;;;;;;;;;;25.20;99.90;;;;;;5055556;28;19911;-85
2022/07/22 11:00:46;;;;;;;;;;;25.10;99.90;;;;;;5056630;28;19930;-83
2022/07/22 11:03:11;;;;;;;;;;;24.90;99.90;;;;;;5056965;28;20356;-83
2022/07/22 11:05:37;;;;;;;;;;;24.80;99.90;;;;;;5057605;28;19909;-82
2022/07/22 11:08:08;;;;;;;;;;;24.90;99.90;;;;;;5056881;28;19908;-82
2022/07/22 11:10:33;;;;;;;;;;;25.10;99.90;;;;;;5059024;28;19970;-82
2022/07/22 11:12:59;;;;;;;;;;;25.40;99.90;;;;;;5058888;28;19905;-83
2022/07/22 11:15:25;;;;;;;;;;;25.60;99.90;;;;;;5061413;28;19999;-84
2022/07/22 11:17:55;;;;;;;;;;;26.00;99.90;;;;;;5056774;28;19959;-83
2022/07/22 11:20:21;;;;;;;;;;;26.50;99.90;;;;;;5053927;28;20467;-83
2022/07/22 11:22:46;;;;;;;;;;;26.90;99.90;;;;;;5055271;28;19905;-80
2022/07/22 11:25:12;;;;;;;;;;;27.20;99.90;;;;;;5052072;28;19908;-82
2022/07/22 11:27:38;;;;;;;;;;;27.40;99.90;;;;;;5037644;28;19939;-84
2022/07/22 11:30:06;;;;;;;;;;;27.30;99.90;;;;;;5038430;28;19956;-83
2022/07/22 11:32:32;;;;;;;;;;;27.20;99.90;;;;;;5057129;28;20376;-81
2022/07/22 11:34:58;;;;;;;;;;;27.10;99.90;;;;;;5037777;28;19914;-80
2022/07/22 11:37:24;;;;;;;;;;;27.20;99.90;;;;;;5055929;28;19904;-81
2022/07/22 11:39:51;;;;;;;;;;;27.20;99.90;;;;;;5040775;28;19912;-80
2022/07/22 11:42:16;;;;;;;;;;;27.00;99.90;;;;;;5054354;28;19908;-81
2022/07/22 11:44:42;;;;;;;;;;;27.00;99.90;;;;;;5036183;28;19908;-81
2022/07/22 11:47:08;;;;;;;;;;;26.90;99.90;;;;;;5054332;28;20374;-84
2022/07/22 11:49:35;;;;;;;;;;;27.10;99.90;;;;;;5037691;28;19928;-82
2022/07/22 11:52:01;;;;;;;;;;;27.10;99.90;;;;;;5055805;28;19951;-82
2022/07/22 11:54:27;;;;;;;;;;;27.40;99.90;;;;;;5038822;28;19932;-81
2022/07/22 11:56:52;;;;;;;;;;;27.50;99.90;;;;;;5055184;28;19963;-82
2022/07/22 11:59:18;;;;;;;;;;;27.60;99.90;;;;;;5057782;28;19967;-81
2022/07/22 12:01:44;;;;;;;;;;;27.60;99.90;;;;;;5039956;28;20310;-80
2022/07/22 12:04:11;;;;;;;;;;;27.50;99.90;;;;;;5061925;28;19911;-80
2022/07/22 12:06:39;;;;;;;;;;;27.50;99.90;;;;;;5059562;28;19975;-81
2022/07/22 12:09:04;;;;;;;;;;;27.30;99.90;;;;;;5059380;28;20014;-81
2022/07/22 12:11:30;;;;;;;;;;;27.40;99.90;;;;;;5058352;28;20038;-81
2022/07/22 12:13:55;;;;;;;;;;;27.60;99.90;;;;;;5041811;28;19905;-81
2022/07/22 12:16:21;;;;;;;;;;;27.70;99.90;;;;;;5042525;28;19912;-82
2022/07/22 12:18:52;;;;;;;;;;;27.60;99.90;;;;;;5042132;28;20392;-81
2022/07/22 12:21:18;;;;;;;;;;;27.70;99.90;;;;;;5042335;28;19908;-81
2022/07/22 12:23:53;;;;;;;;;;;27.80;99.90;;;;;;5055522;28;20252;-81
2022/07/22 12:26:19;;;;;;;;;;;27.60;99.90;;;;;;5034938;28;19955;-82
2022/07/22 12:28:44;;;;;;;;;;;27.70;99.90;;;;;;5052516;28;19904;-81
2022/07/22 12:31:10;;;;;;;;;;;27.70;99.90;;;;;;5034806;28;19951;-82
2022/07/22 12:33:36;;;;;;;;;;;27.80;99.90;;;;;;5035036;28;20387;-81
2022/07/22 12:36:06;;;;;;;;;;;27.80;99.90;;;;;;5025183;28;19912;-81
2022/07/22 12:38:31;;;;;;;;;;;27.70;99.90;;;;;;5014612;28;20408;-81
2022/07/22 12:41:17;;;;;;;;;;;27.90;99.90;;;;;;5014986;28;19909;-81
2022/07/22 12:43:43;;;;;;;;;;;28.00;99.90;;;;;;5033504;28;20288;-82
2022/07/22 12:46:08;;;;;;;;;;;28.00;99.90;;;;;;5014920;28;19905;-82
2022/07/22 12:48:33;;;;;;;;;;;27.90;99.90;;;;;;5032775;28;19952;-82
2022/07/22 12:50:59;;;;;;;;;;;28.00;99.90;;;;;;5033323;28;19912;-83
2022/07/22 12:53:28;;;;;;;;;;;28.10;99.90;;;;;;5034082;28;19909;-83
2022/07/22 12:55:56;;;;;;;;;;;28.20;99.90;;;;;;5014897;28;19912;-82
2022/07/22 12:58:23;;;;;;;;;;;28.10;99.90;;;;;;5014883;28;19920;-82
2022/07/22 13:00:50;;;;;;;;;;;28.10;99.90;;;;;;5014667;28;19909;-82
2022/07/22 13:03:18;;;;;;;;;;;28.20;99.90;;;;;;5014754;28;19904;-84
2022/07/22 13:05:46;;;;;;;;;;;28.20;99.90;;;;;;5014569;28;19913;-82
2022/07/22 13:08:11;;;;;;;;;;;28.30;99.90;;;;;;5014730;28;19905;-82
2022/07/22 13:10:37;;;;;;;;;;;28.40;99.90;;;;;;5014876;28;19975;-82
2022/07/22 13:13:02;;;;;;;;;;;28.40;99.90;;;;;;5014665;28;20361;-82
2022/07/22 13:15:28;;;;;;;;;;;28.40;99.90;;;;;;5014769;28;19905;-83
2022/07/22 13:17:53;;;;;;;;;;;28.20;99.90;;;;;;5032513;28;19905;-83
2022/07/22 13:20:20;;;;;;;;;;;27.60;99.90;;;;;;5014781;28;19958;-83
2022/07/22 13:22:46;;;;;;;;;;;27.90;99.90;;;;;;5034606;28;19912;-82
2022/07/22 13:25:12;;;;;;;;;;;28.10;99.90;;;;;;5019135;28;20471;-84
2022/07/22 13:27:37;;;;;;;;;;;28.20;99.90;;;;;;5036730;28;19947;-82
2022/07/22 13:30:03;;;;;;;;;;;28.20;99.90;;;;;;5036696;28;19912;-83
2022/07/22 13:32:29;;;;;;;;;;;28.30;99.90;;;;;;5018663;28;19956;-82
2022/07/22 13:34:54;;;;;;;;;;;28.30;99.90;;;;;;5037429;28;19912;-81
2022/07/22 13:37:21;;;;;;;;;;;28.30;99.90;;;;;;5038683;28;19959;-81
2022/07/22 13:39:48;;;;;;;;;;;28.30;99.90;;;;;;5020998;28;20004;-81
2022/07/22 13:42:17;;;;;;;;;;;28.40;99.90;;;;;;5020197;28;19909;-83
2022/07/22 13:44:43;;;;;;;;;;;28.50;99.90;;;;;;5036644;28;19909;-83
2022/07/22 13:47:08;;;;;;;;;;;28.30;99.90;;;;;;5036047;28;19912;-84
2022/07/22 13:49:34;;;;;;;;;;;28.30;99.90;;;;;;5019070;28;20404;-83
2022/07/22 13:52:00;;;;;;;;;;;27.70;99.90;;;;;;5018594;28;20376;-82
2022/07/22 13:54:26;;;;;;;;;;;27.70;99.90;;;;;;5018784;28;19908;-82
2022/07/22 13:56:51;;;;;;;;;;;28.00;99.90;;;;;;5035272;28;20410;-83
2022/07/22 13:59:17;;;;;;;;;;;27.80;99.90;;;;;;5018529;28;19905;-82
2022/07/22 14:01:43;;;;;;;;;;;27.90;99.90;;;;;;5018282;28;19912;-83
2022/07/22 14:04:08;;;;;;;;;;;28.00;99.90;;;;;;5021112;28;19905;-81
2022/07/22 14:06:34;;;;;;;;;;;28.20;99.90;;;;;;5037623;28;19909;-81
2022/07/22 14:09:00;;;;;;;;;;;28.30;99.90;;;;;;5020511;28;19905;-81
2022/07/22 14:11:25;;;;;;;;;;;28.40;99.90;;;;;;5037323;28;19967;-81